Time;durP1;ratioP1;P1;durP2;ratioP2;P2;SDS_P1;SDS_P2;PMS_P1;PMS_P2;Temp;Humidity;BMP_temperature;BMP_pressure;BME280_temperature;BME280_humidity;BME280_pressure;Samples;Min_cycle;Max_cycle;Signal;HPM_P1;HPM_P2
2023/09/28 00:01:45;;;;;;;11.43;4.47;;;;;;;15.48;61.52;99679.91;6166579;23;20001;-92
2023/09/28 00:04:11;;;;;;;10.15;4.65;;;;;;;15.44;61.68;99675.34;6140407;23;20012;-91
2023/09/28 00:09:20;;;;;;;8.80;4.20;;;;;;;15.40;62.12;99687.88;6167806;23;20008;-92
2023/09/28 00:11:46;;;;;;;11.80;4.38;;;;;;;15.27;62.71;99686.69;6139817;23;20356;-92
2023/09/28 00:14:11;;;;;;;9.23;4.38;;;;;;;15.26;62.66;99688.63;6139997;23;20004;-93
2023/09/28 00:16:37;;;;;;;10.80;4.28;;;;;;;15.10;62.43;99663.59;6137310;23;20009;-92
2023/09/28 00:19:21;;;;;;;10.98;4.28;;;;;;;15.37;62.41;99697.41;6139967;23;20001;-92
2023/09/28 00:21:47;;;;;;;12.10;5.07;;;;;;;15.20;62.57;99675.41;6163194;23;20016;-92
2023/09/28 00:24:12;;;;;;;9.85;4.40;;;;;;;15.22;62.36;99679.44;6140426;23;20036;-92
2023/09/28 00:26:38;;;;;;;11.02;4.30;;;;;;;15.27;62.78;99694.84;6140624;23;19993;-92
2023/09/28 00:29:04;;;;;;;6.93;3.75;;;;;;;15.21;62.70;99679.72;6140695;23;20001;-92
2023/09/28 00:31:31;;;;;;;14.18;4.35;;;;;;;15.13;62.74;99679.28;6139024;23;20063;-92
2023/09/28 00:33:56;;;;;;;10.05;4.38;;;;;;;15.07;62.78;99672.31;6164288;23;20072;-93
2023/09/28 00:36:22;;;;;;;10.45;4.28;;;;;;;15.19;62.46;99682.75;6139041;23;20016;-92
2023/09/28 00:38:48;;;;;;;5.55;4.05;;;;;;;15.23;62.34;99686.50;6164526;23;19996;-93
2023/09/28 00:43:57;;;;;;;7.30;4.35;;;;;;;15.06;63.20;99672.59;6167881;23;20008;-91
2023/09/28 00:46:25;;;;;;;6.65;4.40;;;;;;;14.85;63.35;99664.72;6163631;23;20364;-90
2023/09/28 00:49:09;;;;;;;14.25;4.78;;;;;;;15.06;63.07;99692.38;6139852;23;20460;-92
2023/09/28 00:51:35;;;;;;;9.05;4.22;;;;;;;14.92;63.14;99676.03;6163198;23;20060;-92
2023/09/28 00:54:20;;;;;;;8.88;4.60;;;;;;;15.05;63.30;99698.13;6163452;23;19997;-92
2023/09/28 01:02:14;;;;;;;10.45;4.22;;;;;;;14.91;63.76;99681.72;6167068;23;20072;-88
2023/09/28 01:04:39;;;;;;;10.30;5.10;;;;;;;14.93;63.57;99685.75;6163071;23;20001;-92
2023/09/28 01:07:05;;;;;;;10.82;4.75;;;;;;;14.92;63.35;99678.75;6139508;23;20000;-92
2023/09/28 01:09:31;;;;;;;6.43;4.65;;;;;;;14.89;63.45;99687.44;6139307;23;20001;-92
2023/09/28 01:11:57;;;;;;;10.25;4.80;;;;;;;14.87;63.80;99695.06;6163529;23;20435;-91
2023/09/28 01:14:23;;;;;;;9.68;4.80;;;;;;;14.77;63.98;99678.91;6139777;23;19989;-92
2023/09/28 01:16:51;;;;;;;8.13;4.90;;;;;;;14.79;63.90;99673.19;6138048;23;20063;-92
2023/09/28 01:19:35;;;;;;;11.32;5.03;;;;;;;14.95;63.74;99682.78;6140086;23;20000;-93
2023/09/28 01:22:02;;;;;;;11.70;4.55;;;;;;;14.84;63.84;99662.31;6163927;23;20005;-91
2023/09/28 01:24:29;;;;;;;10.82;4.65;;;;;;;14.75;64.01;99662.94;6164570;23;20001;-92
2023/09/28 01:26:54;;;;;;;11.68;5.10;;;;;;;14.74;63.56;99657.81;6139779;23;20005;-92
2023/09/28 01:35:44;;;;;;;8.45;4.80;;;;;;;14.95;63.71;99680.06;6189371;23;20031;-92
2023/09/28 01:38:18;;;;;;;8.15;4.30;;;;;;;15.02;63.87;99685.94;6189978;23;20005;-90
2023/09/28 01:40:47;;;;;;;18.50;5.03;;;;;;;15.01;63.23;99667.25;6189273;23;20420;-91
2023/09/28 01:43:13;;;;;;;11.82;4.40;;;;;;;15.08;62.76;99673.13;6140049;23;20064;-92
2023/09/28 01:45:38;;;;;;;9.15;5.18;;;;;;;15.01;63.44;99665.34;6138389;23;20403;-92
2023/09/28 01:48:04;;;;;;;9.32;4.90;;;;;;;14.98;64.02;99674.03;6163212;23;20021;-92
2023/09/28 01:50:33;;;;;;;11.93;5.30;;;;;;;15.00;64.22;99679.19;6138489;23;20491;-92
2023/09/28 01:52:59;;;;;;;12.70;5.60;;;;;;;15.11;63.62;99673.34;6138444;23;20001;-93
2023/09/28 01:55:24;;;;;;;9.75;5.57;;;;;;;15.19;63.18;99671.06;6163048;23;20063;-92
2023/09/28 02:00:35;;;;;;;14.65;5.05;;;;;;;15.26;62.23;99676.97;6167085;23;20035;-92
2023/09/28 02:03:03;;;;;;;11.45;5.57;;;;;;;15.27;62.18;99668.53;6139584;23;20025;-91
2023/09/28 02:05:48;;;;;;;13.38;5.18;;;;;;;15.43;62.31;99685.41;6164059;23;20074;-91
2023/09/28 02:08:14;;;;;;;7.88;5.18;;;;;;;15.40;61.90;99680.56;6161436;23;20000;-91
2023/09/28 02:10:40;;;;;;;10.30;5.22;;;;;;;15.36;62.57;99683.06;6163285;23;20072;-92
2023/09/28 02:13:05;;;;;;;11.52;5.28;;;;;;;15.36;62.36;99683.06;6163878;23;20001;-92
2023/09/28 02:18:34;;;;;;;10.23;4.80;;;;;;;15.45;62.17;99685.91;6188815;23;20359;-92
2023/09/28 02:21:00;;;;;;;10.35;4.68;;;;;;;15.37;62.48;99686.56;6162379;23;19993;-91
2023/09/28 02:23:26;;;;;;;8.55;4.72;;;;;;;15.26;62.72;99685.91;6138671;23;20008;-92
2023/09/28 02:25:51;;;;;;;11.07;4.50;;;;;;;15.35;63.07;99699.63;6162833;23;20080;-91
2023/09/28 02:28:17;;;;;;;13.52;4.50;;;;;;;15.41;62.51;99679.44;6138784;23;20001;-92
2023/09/28 02:33:47;;;;;;;13.70;4.95;;;;;;;15.30;62.92;99686.94;6188418;23;20519;-91
2023/09/28 02:36:12;;;;;;;7.05;4.45;;;;;;;15.28;63.01;99699.97;6163018;23;20106;-92
2023/09/28 02:38:57;;;;;;;15.23;5.45;;;;;;;15.30;63.22;99705.13;6139449;23;20020;-92
2023/09/28 02:41:22;;;;;;;9.73;4.35;;;;;;;15.31;62.50;99690.44;6162894;23;20005;-92
2023/09/28 02:43:48;;;;;;;7.18;4.75;;;;;;;15.42;62.56;99710.09;6140373;23;20384;-92
2023/09/28 02:46:13;;;;;;;12.30;4.53;;;;;;;15.45;62.48;99701.41;6141026;23;20363;-91
2023/09/28 02:48:39;;;;;;;11.52;5.10;;;;;;;15.51;61.94;99700.22;6140277;23;20059;-92
2023/09/28 02:51:23;;;;;;;10.65;5.63;;;;;;;15.48;62.55;99698.91;6165967;23;20373;-92
2023/09/28 02:53:49;;;;;;;10.80;5.68;;;;;;;15.41;62.56;99697.66;6164427;23;20340;-93
2023/09/28 02:56:33;;;;;;;6.72;4.90;;;;;;;15.56;62.30;99703.69;6140139;23;20002;-92
2023/09/28 02:58:59;;;;;;;15.38;5.68;;;;;;;15.43;62.26;99693.53;6164038;23;20028;-91
2023/09/28 03:01:26;;;;;;;15.65;6.05;;;;;;;15.41;62.32;99709.31;6164622;23;20005;-92
2023/09/28 03:03:53;;;;;;;10.30;5.68;;;;;;;15.46;62.44;99701.09;6164160;23;20424;-93
2023/09/28 03:06:20;;;;;;;15.25;5.28;;;;;;;15.43;62.08;99693.53;6140696;23;19996;-92
2023/09/28 03:08:46;;;;;;;12.75;6.15;;;;;;;15.40;62.35;99693.31;6164959;23;20020;-92
2023/09/28 03:11:14;;;;;;;13.20;5.97;;;;;;;15.51;62.22;99711.06;6164263;23;20029;-91
2023/09/28 03:13:58;;;;;;;12.57;5.68;;;;;;;15.50;62.08;99713.00;6141016;23;20000;-92
2023/09/28 03:16:24;;;;;;;12.80;5.47;;;;;;;15.43;62.23;99703.59;6168358;23;20024;-93
2023/09/28 03:18:50;;;;;;;13.57;5.65;;;;;;;15.55;61.98;99712.09;6140804;23;20324;-92
2023/09/28 03:21:16;;;;;;;14.95;5.38;;;;;;;15.62;61.85;99712.53;6142650;23;20003;-93
2023/09/28 03:26:27;;;;;;;20.20;5.97;;;;;;;15.53;62.05;99709.69;6168388;23;20008;-91
2023/09/28 03:28:53;;;;;;;15.07;6.47;;;;;;;15.44;62.25;99700.59;6164736;23;20001;-92
2023/09/28 03:31:18;;;;;;;12.93;6.50;;;;;;;15.52;62.34;99708.06;6139889;23;20001;-91
2023/09/28 03:33:44;;;;;;;21.73;6.68;;;;;;;15.30;62.74;99686.13;6163361;23;20001;-90
2023/09/28 03:36:10;;;;;;;16.70;7.28;;;;;;;15.40;62.38;99699.56;6138557;23;20013;-92
2023/09/28 03:38:36;;;;;;;15.23;6.63;;;;;;;15.45;62.00;99693.25;6163808;23;20004;-91
2023/09/28 03:41:01;;;;;;;13.65;6.32;;;;;;;15.43;62.36;99709.03;6164469;23;19997;-92
2023/09/28 03:43:26;;;;;;;10.85;5.60;;;;;;;15.45;62.08;99704.09;6139967;23;20001;-92
2023/09/28 03:45:52;;;;;;;11.80;5.50;;;;;;;15.48;62.32;99720.63;6139456;23;20008;-92
2023/09/28 03:48:36;;;;;;;9.88;5.00;;;;;;;15.67;61.19;99727.97;6140495;23;20020;-92
2023/09/28 03:54:05;;;;;;;7.80;4.05;;;;;;;15.55;61.08;99712.91;6188845;23;20008;-92
2023/09/28 03:56:49;;;;;;;9.30;4.88;;;;;;;15.30;62.11;99695.06;6140052;23;20009;-91
2023/09/28 03:59:53;;;;;;;12.48;4.88;;;;;;;15.31;62.90;99737.38;6167508;23;20001;-91
2023/09/28 04:02:18;;;;;;;12.05;4.72;;;;;;;15.06;63.69;99716.78;6189044;23;19997;-91
2023/09/28 04:05:02;;;;;;;7.55;4.43;;;;;;;15.22;63.35;99724.75;6139296;23;20011;-92
2023/09/28 04:07:29;;;;;;;11.20;4.70;;;;;;;14.99;63.89;99716.34;6190096;23;19989;-92
2023/09/28 04:10:13;;;;;;;14.50;4.85;;;;;;;14.97;63.94;99732.09;6163916;23;20497;-92
2023/09/28 04:12:58;;;;;;;10.20;4.45;;;;;;;14.89;64.14;99721.88;6167851;23;20001;-90
2023/09/28 04:15:43;;;;;;;10.75;4.72;;;;;;;15.01;64.01;99735.06;6169543;23;19996;-91
2023/09/28 04:18:08;;;;;;;27.42;21.65;;;;;;;14.80;64.43;99716.28;6164877;23;20009;-92
2023/09/28 04:20:35;;;;;;;8.80;6.32;;;;;;;14.78;64.60;99756.44;6140403;23;20012;-92
2023/09/28 04:23:05;;;;;;;11.45;5.22;;;;;;;14.71;64.78;99737.81;6141263;23;20005;-93
2023/09/28 04:25:32;;;;;;;12.25;5.00;;;;;;;14.90;64.08;99740.59;6142068;23;20005;-93
2023/09/28 04:27:57;;;;;;;12.00;5.38;;;;;;;15.03;63.85;99751.84;6140851;23;19992;-93
2023/09/28 04:30:23;;;;;;;23.13;6.15;;;;;;;14.87;64.37;99734.94;6141701;23;20371;-91
2023/09/28 04:32:52;;;;;;;12.90;5.05;;;;;;;14.91;64.14;99728.63;6167172;23;20000;-94
2023/09/28 04:35:39;;;;;;;13.10;5.63;;;;;;;15.19;63.72;99766.00;6143455;23;20070;-93
2023/09/28 04:38:05;;;;;;;13.98;5.70;;;;;;;15.20;63.41;99745.94;6170580;23;20059;-93
2023/09/28 04:43:17;;;;;;;13.02;5.30;;;;;;;15.59;62.29;99753.06;6172363;23;20015;-93
2023/09/28 04:45:48;;;;;;;12.40;5.82;;;;;;;15.62;61.90;99728.03;6166906;23;20428;-93
2023/09/28 04:48:33;;;;;;;17.38;6.55;;;;;;;15.79;61.88;99760.91;6144971;23;20017;-93
2023/09/28 04:50:58;;;;;;;17.58;5.70;;;;;;;15.68;61.64;99743.94;6167579;23;20089;-93
2023/09/28 04:53:48;;;;;;;12.32;5.40;;;;;;;15.82;62.26;99763.06;6143714;23;20033;-94
2023/09/28 04:56:15;;;;;;;17.10;5.32;;;;;;;15.66;61.41;99734.47;6191138;23;20047;-94
2023/09/28 04:59:02;;;;;;;21.90;5.63;;;;;;;15.73;62.39;99767.53;6143628;23;20088;-93
2023/09/28 05:01:37;;;;;;;10.45;5.13;;;;;;;15.72;62.25;99758.56;6146922;23;20024;-93
2023/09/28 05:04:10;;;;;;;18.52;4.85;;;;;;;15.70;61.87;99754.50;6147625;23;20021;-94
2023/09/28 05:09:23;;;;;;;18.30;5.85;;;;;;;15.75;61.25;99751.78;6169036;23;20035;-94
2023/09/28 05:12:10;;;;;;;13.50;5.70;;;;;;;15.54;61.72;99735.72;6141262;23;20013;-93
2023/09/28 05:14:36;;;;;;;23.92;5.60;;;;;;;15.66;61.47;99757.00;6169272;23;20004;-93
2023/09/28 05:17:07;;;;;;;13.43;5.45;;;;;;;15.80;61.31;99767.97;6142176;23;20456;-93
2023/09/28 05:19:41;;;;;;;17.60;5.93;;;;;;;15.88;61.25;99761.09;6142237;23;20068;-95
2023/09/28 05:22:07;;;;;;;15.80;5.43;;;;;;;15.85;61.60;99753.50;6143982;23;20001;-93
2023/09/28 05:24:33;;;;;;;10.68;6.00;;;;;;;15.87;61.70;99776.53;6167711;23;20008;-94
2023/09/28 05:27:04;;;;;;;17.52;5.60;;;;;;;15.74;61.18;99763.72;6143804;23;19997;-94
2023/09/28 05:29:49;;;;;;;12.57;5.35;;;;;;;15.85;61.09;99759.75;6144451;23;20000;-96
2023/09/28 05:32:23;;;;;;;13.75;5.63;;;;;;;15.95;60.76;99769.66;6175859;23;20008;-96
2023/09/28 05:34:51;;;;;;;13.27;4.85;;;;;;;16.00;60.61;99764.16;6151738;23;20001;-95
2023/09/28 05:37:36;;;;;;;15.07;5.63;;;;;;;16.12;60.13;99775.38;6149827;23;20040;-95
2023/09/28 05:43:28;;;;;;;15.50;7.45;;;;;;;16.69;59.45;99788.03;6196894;23;20088;-93
2023/09/28 05:45:58;;;;;;;19.42;6.60;;;;;;;16.70;59.10;99779.56;6165241;23;20356;-91
2023/09/28 05:51:21;;;;;;;20.95;7.07;;;;;;;17.22;57.71;99800.41;6164755;23;20005;-94
2023/09/28 05:53:59;;;;;;;19.23;8.65;;;;;;;17.25;57.12;99792.47;6148312;23;20001;-94
2023/09/28 05:59:12;;;;;;;16.02;6.63;;;;;;;17.27;56.99;99811.22;6172106;23;20031;-93
2023/09/28 06:01:40;;;;;;;20.48;6.10;;;;;;;17.16;57.05;99794.25;6167405;23;20005;-94
2023/09/28 06:04:54;;;;;;;14.93;7.47;;;;;;;17.50;56.77;99815.66;6171118;23;19997;-94
2023/09/28 06:10:08;;;;;;;17.40;6.47;;;;;;;17.52;56.64;99799.81;6160554;23;20120;-93
2023/09/28 06:15:23;;;;;;;22.42;7.85;;;;;;;17.45;56.46;99806.75;6171229;23;20011;-94
2023/09/28 06:17:48;;;;;;;25.42;7.60;;;;;;;17.61;55.99;99829.06;6144975;23;20010;-95
2023/09/28 06:20:14;;;;;;;21.48;7.53;;;;;;;17.51;55.80;99791.94;6168414;23;20031;-94
2023/09/28 06:22:58;;;;;;;15.73;6.80;;;;;;;17.69;55.52;99814.72;6144642;23;20462;-95
2023/09/28 06:25:24;;;;;;;22.10;7.47;;;;;;;17.69;55.11;99799.19;6167263;23;20001;-95
2023/09/28 06:28:03;;;;;;;;;;;;;;;;;;;;;
2023/09/28 06:31:12;;;;;;;19.27;6.50;;;;;;;18.00;55.02;99800.47;6166258;23;20021;-94
2023/09/28 06:33:42;;;;;;;19.88;5.63;;;;;;;18.14;55.27;99810.19;6192402;23;20000;-94
2023/09/28 06:36:18;;;;;;;18.10;6.90;;;;;;;18.16;54.41;99796.28;6168023;23;20463;-94
2023/09/28 06:39:25;;;;;;;17.85;7.38;;;;;;;18.14;54.80;99780.22;6141149;23;20001;-94
2023/09/28 06:41:51;;;;;;;14.77;6.18;;;;;;;18.48;53.78;99799.84;6176530;23;20005;-95
2023/09/28 06:44:26;;;;;;;20.67;7.65;;;;;;;18.47;53.88;99788.16;6167661;23;20332;-96
2023/09/28 06:46:51;;;;;;;20.48;6.32;;;;;;;18.76;53.64;99805.97;6148287;23;19997;-95
2023/09/28 06:49:27;;;;;;;21.45;5.88;;;;;;;18.76;53.29;99793.13;6170282;23;20021;-95
2023/09/28 06:51:59;;;;;;;22.88;5.70;;;;;;;18.97;52.38;99804.34;6173516;23;19997;-94
2023/09/28 06:54:52;;;;;;;;;;;;;;;19.05;52.02;99810.16;6147241;23;19997;-92
2023/09/28 06:57:19;;;;;;;10.98;6.55;;;;;;;19.18;51.23;99809.25;6196588;23;19916;-93
2023/09/28 06:59:47;;;;;;;10.80;5.40;;;;;;;19.36;50.43;99791.81;6168906;23;20008;-92
2023/09/28 07:02:12;;;;;;;6.72;3.50;;;;;;;19.48;47.89;99785.72;6167854;23;20052;-91
2023/09/28 07:07:29;;;;;;;12.57;3.30;;;;;;;19.70;46.80;99793.03;6195659;23;20012;-94
2023/09/28 07:12:41;;;;;;;12.15;4.75;;;;;;;20.00;46.73;99809.63;6172533;23;20015;-94
2023/09/28 07:15:08;;;;;;;11.05;3.80;;;;;;;19.87;45.51;99797.72;6142978;23;20004;-94
2023/09/28 07:17:58;;;;;;;8.80;4.35;;;;;;;19.69;45.48;99791.38;6141373;23;20281;-96
2023/09/28 07:20:55;;;;;;;10.30;2.90;;;;;;;19.96;44.78;99816.84;6170747;23;20012;-93
2023/09/28 07:23:21;;;;;;;12.23;3.20;;;;;;;19.77;44.46;99789.84;6198669;23;20419;-94
2023/09/28 07:25:51;;;;;;;6.35;2.97;;;;;;;19.87;44.99;99799.66;6167149;23;20005;-93
2023/09/28 07:28:16;;;;;;;9.32;3.28;;;;;;;19.82;44.44;99783.41;6145118;23;20005;-93
2023/09/28 07:30:45;;;;;;;9.77;5.53;;;;;;;19.63;45.39;99781.75;6146034;23;20012;-95
2023/09/28 07:33:26;;;;;;;;;;;;;;;20.07;45.06;99818.16;6170773;23;19981;-93
2023/09/28 07:35:52;;;;;;;6.20;3.22;;;;;;;19.97;44.29;99783.75;6170874;23;19908;-94
2023/09/28 07:38:47;;;;;;;;;;;;;;;;;;;;;
2023/09/28 07:41:31;;;;;;;7.57;3.50;;;;;;;19.92;44.45;99802.22;6187389;23;20444;-94
2023/09/28 07:44:23;;;;;;;9.13;3.25;;;;;;;19.94;44.73;99802.69;6150606;23;20041;-93
2023/09/28 07:46:48;;;;;;;;;;;;;;;20.19;44.13;99818.31;6138041;23;19997;-92
2023/09/28 07:55:31;;;;;;;8.80;3.05;;;;;;;20.26;44.01;99806.91;6202529;23;20016;-96
2023/09/28 07:57:59;;;;;;;11.48;3.17;;;;;;;20.36;43.98;99808.50;6180551;23;20009;-95
2023/09/28 08:00:42;;;;;;;8.18;2.90;;;;;;;20.46;44.01;99813.66;6146713;23;20101;-93
2023/09/28 08:03:10;;;;;;;9.27;3.00;;;;;;;20.43;43.91;99788.88;6171222;23;19997;-94
2023/09/28 08:05:38;;;;;;;5.32;2.88;;;;;;;20.64;43.75;99806.22;6169803;23;19997;-94
2023/09/28 08:08:12;;;;;;;9.13;4.05;;;;;;;20.78;43.58;99812.31;6169958;23;19997;-94
2023/09/28 08:11:03;;;;;;;8.35;3.25;;;;;;;20.77;43.08;99794.31;6143811;23;20033;-95
2023/09/28 08:14:05;;;;;;;;;;;;;;;;;;;;;
2023/09/28 08:16:45;;;;;;;9.45;4.03;;;;;;;21.45;42.55;99823.69;6192383;23;20037;-93
2023/09/28 08:19:11;;;;;;;17.65;3.72;;;;;;;21.34;43.61;99809.53;6170043;23;20004;-92
2023/09/28 08:21:58;;;;;;;8.05;3.30;;;;;;;21.63;43.47;99809.91;6143728;23;20001;-94
2023/09/28 08:24:28;;;;;;;13.57;3.70;;;;;;;21.78;42.54;99812.06;6174929;23;20005;-94
2023/09/28 08:27:19;;;;;;;13.30;4.53;;;;;;;21.89;42.56;99787.78;6148072;23;20084;-95
2023/09/28 08:29:59;;;;;;;9.50;4.05;;;;;;;22.00;41.67;99809.00;6039093;23;20003;-95
2023/09/28 08:32:33;;;;;;;6.30;3.42;;;;;;;22.21;42.05;99824.66;6185156;23;20009;-93
2023/09/28 08:35:03;;;;;;;14.27;5.75;;;;;;;22.18;42.92;99800.63;6145539;23;20012;-95
2023/09/28 08:37:29;;;;;;;11.18;2.90;;;;;;;22.29;41.77;99817.53;6171634;23;20013;-92
2023/09/28 08:40:02;;;;;;;7.65;3.00;;;;;;;22.15;41.65;99799.34;6177824;23;20032;-96
2023/09/28 08:42:28;;;;;;;8.68;3.58;;;;;;;22.27;41.62;99797.84;6173962;23;20005;-95
2023/09/28 08:45:16;;;;;;;7.32;3.50;;;;;;;22.26;42.15;99788.78;6144269;23;20072;-94
2023/09/28 08:49:05;;;;;;;;;;;;;;;;;;;;;
2023/09/28 09:31:15;;;;;;;5.78;2.40;;;;;;;23.27;44.22;99762.03;6169333;22;20025;-96
2023/09/28 09:55:52;;;;;;;5.55;2.75;;;;;;;23.64;43.56;99740.78;6137191;23;20025;-93
2023/09/28 10:01:49;;;;;;;7.93;2.75;;;;;;;23.38;44.41;99743.91;6015690;23;20029;-93
2023/09/28 10:04:32;;;;;;;9.85;3.00;;;;;;;23.54;44.10;99733.81;6084904;23;20610;-94
2023/09/28 10:07:37;;;;;;;14.73;3.25;;;;;;;23.58;44.05;99742.97;6056241;23;20556;-94
2023/09/28 10:10:08;;;;;;;10.40;3.47;;;;;;;23.56;44.43;99749.97;6028918;23;20406;-95
2023/09/28 10:13:00;;;;;;;7.10;2.85;;;;;;;23.32;44.71;99739.81;6028794;23;20007;-92
2023/09/28 10:15:47;;;;;;;22.20;3.83;;;;;;;23.44;44.60;99747.25;6032228;23;20010;-92
2023/09/28 10:18:25;;;;;;;15.20;5.68;;;;;;;23.53;44.80;99732.22;6033295;23;20031;-95
2023/09/28 10:20:53;;;;;;;8.82;3.50;;;;;;;23.66;43.98;99726.69;6009520;23;20011;-94
2023/09/28 10:23:37;;;;;;;7.65;2.72;;;;;;;23.86;43.14;99747.72;6029703;23;20089;-94
2023/09/28 10:26:14;;;;;;;8.43;3.20;;;;;;;23.90;44.14;99734.09;6028097;23;20398;-94
2023/09/28 10:29:05;;;;;;;9.50;2.85;;;;;;;23.84;43.83;99724.50;6028695;23;20019;-90
2023/09/28 10:31:37;;;;;;;10.18;3.22;;;;;;;23.79;43.68;99695.28;6024352;23;20054;-94
2023/09/28 10:34:22;;;;;;;12.18;3.20;;;;;;;24.11;43.61;99722.88;6028416;23;20009;-93
2023/09/28 10:37:26;;;;;;;7.75;2.47;;;;;;;24.18;42.83;99707.38;6047865;23;20014;-95
2023/09/28 10:39:58;;;;;;;7.00;3.08;;;;;;;24.18;42.79;99703.84;6050052;23;20003;-94
2023/09/28 10:42:30;;;;;;;;;;;;;;;24.18;44.29;99707.38;6006383;23;20031;-94
2023/09/28 10:45:37;;;;;;;9.38;2.75;;;;;;;24.21;43.69;99708.63;6061382;23;19897;-95
2023/09/28 10:48:05;;;;;;;6.68;2.00;;;;;;;24.14;42.71;99697.44;6009061;23;19983;-92
2023/09/28 10:50:30;;;;;;;8.32;2.28;;;;;;;24.15;42.94;99688.81;6005951;23;20003;-95
2023/09/28 10:53:01;;;;;;;10.48;2.47;;;;;;;24.06;43.50;99682.69;6005017;23;20109;-96
2023/09/28 10:58:54;;;;;;;9.55;2.30;;;;;;;24.13;43.59;99684.81;6060490;23;20070;-94
2023/09/28 11:01:20;;;;;;;5.88;2.72;;;;;;;24.34;42.81;99676.31;6030356;23;20035;-96
2023/09/28 11:03:46;;;;;;;8.45;3.15;;;;;;;24.38;41.96;99663.44;6006165;23;20003;-96
2023/09/28 11:06:12;;;;;;;8.32;2.40;;;;;;;24.52;41.22;99655.59;6006951;23;20006;-94
2023/09/28 11:08:37;;;;;;;12.60;3.22;;;;;;;24.64;41.88;99664.94;6003368;23;20525;-94
2023/09/28 11:11:03;;;;;;;7.50;2.40;;;;;;;24.62;41.29;99672.75;6029946;23;20014;-95
2023/09/28 11:13:40;;;;;;;8.07;2.30;;;;;;;24.74;41.06;99672.66;6007255;23;20013;-95
2023/09/28 11:19:00;;;;;;;9.07;2.33;;;;;;;25.03;40.54;99679.63;6095289;23;20041;-92
2023/09/28 11:21:26;;;;;;;7.55;2.25;;;;;;;24.93;40.30;99678.22;6061690;23;20002;-95
2023/09/28 11:23:53;;;;;;;16.85;2.58;;;;;;;24.85;40.93;99664.63;6066494;23;20013;-92
2023/09/28 11:26:19;;;;;;;5.30;2.25;;;;;;;24.83;40.35;99653.97;6067592;23;20002;-93
2023/09/28 11:52:20;;;;;;;6.53;2.22;;;;;;;25.03;38.45;99646.56;6100045;23;20073;-95
2023/09/28 11:57:34;;;;;;;9.82;6.82;;;;;;;25.10;38.46;99643.16;6094941;23;20016;-93
2023/09/28 12:00:01;;;;;;;9.25;3.20;;;;;;;25.27;38.70;99647.50;6086678;23;20006;-94
2023/09/28 12:05:18;;;;;;;7.88;2.30;;;;;;;25.38;37.71;99638.31;6095386;23;20094;-93
2023/09/28 12:07:47;;;;;;;7.87;2.13;;;;;;;25.49;37.31;99637.72;6064067;23;20002;-93
2023/09/28 12:10:14;;;;;;;10.30;2.15;;;;;;;25.65;37.14;99646.72;6060017;23;20230;-93
2023/09/28 12:12:43;;;;;;;6.88;2.13;;;;;;;25.58;37.07;99639.09;6086360;23;20002;-95
2023/09/28 12:15:11;;;;;;;11.43;2.78;;;;;;;25.56;36.99;99632.34;6085799;23;20033;-93
2023/09/28 12:17:59;;;;;;;8.50;2.42;;;;;;;25.58;36.69;99652.88;6063371;23;20010;-95
2023/09/28 12:20:44;;;;;;;4.88;2.22;;;;;;;25.32;36.37;99645.25;6088399;23;19990;-95
2023/09/28 12:26:13;;;;;;;5.57;2.33;;;;;;;25.68;36.66;99637.72;6094012;23;20066;-94
2023/09/28 12:31:42;;;;;;;8.73;2.30;;;;;;;25.70;36.54;99610.56;6114868;23;20057;-94
2023/09/28 12:34:07;;;;;;;11.80;3.00;;;;;;;25.79;36.49;99607.56;6088848;23;20005;-94
2023/09/28 12:39:37;;;;;;;6.95;2.60;;;;;;;26.08;35.99;99614.44;6083442;23;20501;-95
2023/09/28 12:42:35;;;;;;;7.95;2.70;;;;;;;26.06;35.65;99604.94;6063529;23;19999;-96
2023/09/28 12:48:52;;;;;;;10.07;2.10;;;;;;;26.19;34.58;99614.66;6091680;23;20076;-95
2023/09/28 12:51:32;;;;;;;11.48;2.20;;;;;;;25.95;34.77;99610.28;6111601;23;20051;-95
2023/09/28 12:57:12;;;;;;;;;;;;;;;;;;;;;
2023/09/28 12:59:46;;;;;;;12.45;2.95;;;;;;;25.99;35.28;99608.38;6111218;23;20110;-96
2023/09/28 13:02:24;;;;;;;21.33;6.93;;;;;;;26.01;34.78;99589.50;6087768;23;20002;-95
2023/09/28 13:05:37;;;;;;;6.40;2.30;;;;;;;26.18;34.27;99593.72;6088938;23;20013;-96
2023/09/28 13:08:35;;;;;;;10.75;2.95;;;;;;;26.02;33.89;99580.03;6125696;23;20004;-95
2023/09/28 13:11:52;;;;;;;5.60;1.65;;;;;;;25.91;33.68;99582.63;6055279;23;20043;-96
2023/09/28 13:14:37;;;;;;;4.15;1.73;;;;;;;25.96;33.90;99604.41;6024445;23;20024;-95
2023/09/28 13:17:59;;;;;;;;;;;;;;;;;;;;;
2023/09/28 13:20:28;;;;;;;9.75;2.50;;;;;;;26.13;34.37;99605.88;6007706;23;20098;-96
2023/09/28 13:23:09;;;;;;;7.53;2.00;;;;;;;25.87;33.20;99580.94;6003273;23;20014;-96
2023/09/28 13:25:38;;;;;;;10.48;2.97;;;;;;;25.93;33.62;99577.53;6028096;23;20415;-91
2023/09/28 13:28:09;;;;;;;16.60;2.58;;;;;;;26.06;33.87;99575.38;6025271;23;20373;-92
2023/09/28 13:30:49;;;;;;;;;;;;;;;;;;;;;
2023/09/28 13:33:15;;;;;;;8.63;2.03;;;;;;;25.96;32.97;99571.28;6026228;23;20075;-93
2023/09/28 13:46:04;;;;;;;9.50;3.03;;;;;;;26.25;33.57;99568.19;6184015;22;20017;-94
2023/09/28 13:48:33;;;;;;;11.70;3.45;;;;;;;26.40;33.93;99579.13;6119323;23;20049;-93
2023/09/28 13:51:12;;;;;;;20.40;5.40;;;;;;;26.47;33.65;99575.66;6143579;23;20032;-94
2023/09/28 13:59:19;;;;;;;17.65;6.43;;;;;;;26.78;33.65;99569.03;6184642;22;20445;-94
2023/09/28 14:01:46;;;;;;;29.45;8.73;;;;;;;26.67;33.37;99554.28;6141694;23;20005;-94
2023/09/28 14:04:18;;;;;;;23.77;8.55;;;;;;;26.70;33.01;99550.78;6121178;23;20001;-94
2023/09/28 14:07:12;;;;;;;16.85;7.05;;;;;;;26.70;32.99;99553.53;6144200;23;19985;-96
2023/09/28 14:09:40;;;;;;;11.35;2.35;;;;;;;26.74;32.35;99573.72;6138096;23;20001;-93
2023/09/28 14:12:17;;;;;;;8.63;2.15;;;;;;;26.68;32.32;99564.16;6118940;23;20032;-96
2023/09/28 14:21:36;;;;;;;17.23;3.90;;;;;;;26.80;32.50;99577.75;6013295;23;20026;-95
2023/09/28 14:24:05;;;;;;;13.38;2.78;;;;;;;26.62;32.44;99549.06;6125198;23;20017;-92
2023/09/28 14:26:39;;;;;;;9.02;2.63;;;;;;;26.86;32.56;99582.97;6120369;23;20001;-94
2023/09/28 14:29:15;;;;;;;12.60;4.30;;;;;;;26.77;32.71;99566.66;6119367;23;20012;-95
2023/09/28 14:31:44;;;;;;;9.27;2.10;;;;;;;26.68;32.68;99568.91;6124797;23;20076;-96
2023/09/28 14:34:16;;;;;;;5.75;2.30;;;;;;;26.66;32.64;99582.28;6118955;23;20004;-93
2023/09/28 14:36:50;;;;;;;6.97;2.10;;;;;;;26.55;32.78;99579.34;6146448;23;19997;-94
2023/09/28 14:39:16;;;;;;;11.00;5.30;;;;;;;26.41;33.56;99577.94;6147045;23;20009;-95
2023/09/28 14:41:47;;;;;;;14.07;2.70;;;;;;;26.23;33.74;99560.31;6121796;23;20059;-95
2023/09/28 14:44:13;;;;;;;11.75;3.00;;;;;;;26.29;33.51;99577.34;6151369;23;20028;-96
2023/09/28 14:46:42;;;;;;;5.30;2.42;;;;;;;26.17;33.72;99576.38;6123771;23;19999;-95
2023/09/28 14:49:13;;;;;;;6.57;2.83;;;;;;;26.13;34.69;99581.03;6152795;23;20002;-96
2023/09/28 14:51:40;;;;;;;;;;;;;;;26.11;34.03;99605.44;6124640;23;20020;-95
2023/09/28 14:54:27;;;;;;;8.13;2.53;;;;;;;25.86;34.33;99577.38;6129495;23;19916;-96
2023/09/28 14:57:05;;;;;;;12.98;2.95;;;;;;;25.77;34.49;99580.38;6126148;23;20032;-95
2023/09/28 14:59:30;;;;;;;11.30;4.22;;;;;;;25.76;34.71;99587.03;6150350;23;20035;-96
2023/09/28 15:02:19;;;;;;;;;;;;;;;;;;;;;
2023/09/28 15:04:58;;;;;;;13.57;3.22;;;;;;;25.67;35.14;99583.75;6151869;23;20021;-93
2023/09/28 15:07:26;;;;;;;7.50;4.00;;;;;;;25.60;35.02;99583.59;6120984;23;20000;-93
2023/09/28 15:09:54;;;;;;;9.98;4.28;;;;;;;25.64;34.64;99591.94;6144042;23;20008;-94
2023/09/28 15:12:52;;;;;;;7.13;2.33;;;;;;;25.47;34.78;99579.41;6120763;23;20021;-95
2023/09/28 15:15:21;;;;;;;11.40;3.03;;;;;;;25.44;35.14;99580.91;6145691;23;20001;-94
2023/09/28 15:17:46;;;;;;;11.85;2.85;;;;;;;25.39;35.58;99583.97;6142594;23;20480;-94
2023/09/28 15:20:44;;;;;;;7.50;3.08;;;;;;;25.46;35.83;99603.41;6119679;23;20005;-93
2023/09/28 15:23:10;;;;;;;12.55;3.10;;;;;;;25.43;35.27;99606.88;6143453;23;20091;-93
2023/09/28 15:25:43;;;;;;;10.10;3.00;;;;;;;25.20;35.51;99582.78;6140856;23;20462;-93
2023/09/28 15:28:14;;;;;;;13.20;2.92;;;;;;;25.24;35.50;99593.91;6141590;23;20022;-94
2023/09/28 15:30:45;;;;;;;;;;;;;;;25.31;35.55;99607.03;6118822;23;20044;-95
2023/09/28 15:33:46;;;;;;;16.05;3.25;;;;;;;25.13;35.67;99592.84;6142369;23;19904;-96